Flight Track Log - Related Links

Times and Time Zones

All times are in EST time to prevent confusion due to time zone crossing. See the EJA583 flight status page for this flight to view local times or setup timezone preferences in your user account.

Time Position Orientation Groundspeed Altitude Reporting Facility
EST Latitude Longitude Course Direction KTS MPH feet Rate Location/Type
Wed 06:22:29 AM 32.7556 -79.9039 347° North 240 276 7,200  Level Jacksonville Center
Wed 06:23:29 AM 32.8247 -79.9236 347° North 283 326 9,700 1,350 Climbing Jacksonville Center
Wed 06:24:29 AM 32.9106 -79.9358 353° North 307 353 9,900 950 Climbing Jacksonville Center
Wed 06:25:29 AM 33.0050 -79.9500 353° North 327 376 11,600 1,800 Climbing Jacksonville Center
Wed 06:26:29 AM 33.1011 -79.9592 355° North 338 389 13,500 1,850 Climbing Jacksonville Center
Wed 06:27:29 AM 33.1969 -79.9536 North 343 395 15,300 1,700 Climbing Jacksonville Center
Wed 06:28:29 AM 33.2964 -79.9253 13° North 348 400 16,900 1,450 Climbing Jacksonville Center
Wed 06:29:29 AM 33.3961 -79.8972 13° North 354 407 18,200 1,900 Climbing Jacksonville Center
Wed 06:30:29 AM 33.5081 -79.8661 13° North 363 418 20,700 2,350 Climbing Jacksonville Center
Wed 06:31:29 AM 33.6053 -79.8378 14° North 363 418 22,900 2,100 Climbing Jacksonville Center
Wed 06:32:29 AM 33.6986 -79.8119 13° North 352 405 24,900 1,950 Climbing Jacksonville Center
Wed 06:33:29 AM 33.7961 -79.7836 14° North 352 405 26,800 1,550 Climbing Jacksonville Center
Wed 06:34:29 AM 33.8933 -79.7528 15° North 352 405 28,000 1,200 Climbing Jacksonville Center
Wed 06:35:29 AM 33.9950 -79.7267 12° North 357 411 29,200 1,200 Climbing Jacksonville Center
Wed 06:36:29 AM 34.0981 -79.6778 21° North 369 425 30,400 1,096 Climbing Jacksonville Center
Wed 06:38:46 AM 34.3292 -79.5653 22° Northeast 405 466 32,800 853 Climbing Washington Center
Wed 06:39:46 AM 34.4294 -79.4947 30° Northeast 405 466 33,200 545 Climbing Washington Center
Wed 06:40:47 AM 34.5144 -79.3853 47° Northeast 420 483 33,900 694 Climbing Washington Center
Wed 06:41:47 AM 34.5992 -79.2731 47° Northeast 431 496 34,600 712 Climbing Washington Center
Wed 06:42:45 AM 34.6858 -79.1658 45° Northeast 442 509 35,300 605 Climbing Washington Center
Wed 06:43:46 AM 34.7728 -79.0533 47° Northeast 442 509 35,800 545 Climbing Washington Center
Wed 06:44:46 AM 34.8592 -78.9433 46° Northeast 442 509 36,400 605 Climbing Washington Center
Wed 06:45:45 AM 34.9439 -78.8303 48° Northeast 442 509 37,000 300 Climbing Washington Center
Wed 06:46:46 AM 35.0322 -78.7169 46° Northeast 442 509 37,000  Level Washington Center
Wed 06:47:45 AM 35.1186 -78.6036 47° Northeast 442 509 37,000  Level Washington Center
Wed 06:48:46 AM 35.2031 -78.4897 48° Northeast 442 509 37,000  Level Washington Center
Wed 06:49:46 AM 35.2892 -78.3758 47° Northeast 447 514 37,000  Level Washington Center
Wed 06:50:47 AM 35.3772 -78.2592 47° Northeast 452 520 37,000 -50 Level Washington Center
Wed 06:51:45 AM 35.4653 -78.1447 47° Northeast 452 520 36,900 -555 Descending Washington Center
Wed 06:52:46 AM 35.5533 -78.0328 46° Northeast 452 520 35,900 -934 Descending Washington Center
Wed 06:53:47 AM 35.6325 -77.9253 48° Northeast 460 529 35,000 -446 Descending Washington Center
Wed 06:54:47 AM 35.7203 -77.8100 47° Northeast 460 529 35,000  Level Washington Center
Wed 06:55:46 AM 35.8103 -77.6872 48° Northeast 465 535 35,000  Level Washington Center
Wed 06:56:44 AM 35.8997 -77.5689 47° Northeast 470 541 35,000  Level Washington Center
Wed 06:57:45 AM 35.9894 -77.4481 47° Northeast 470 541 35,000  Level Washington Center
Wed 06:58:47 AM 36.0767 -77.3319 47° Northeast 465 535 35,000  Level Washington Center
Wed 06:59:45 AM 36.1744 -77.2003 47° Northeast 465 535 35,000  Level Washington Center
Wed 07:00:45 AM 36.2575 -77.0808 49° Northeast 459 528 35,000  Level Washington Center
Wed 07:01:46 AM 36.3361 -76.9508 53° Northeast 459 528 35,000  Level Washington Center
Wed 07:02:47 AM 36.3753 -76.7917 73° East 465 535 35,000  Level Washington Center
Wed 07:03:44 AM 36.4311 -76.6428 65° Northeast 465 535 35,000  Level Washington Center
Wed 07:04:46 AM 36.5339 -76.5586 33° Northeast 440 506 35,000  Level Washington Center
Wed 07:05:47 AM 36.6431 -76.4825 29° Northeast 435 501 35,000  Level Washington Center
Wed 07:06:45 AM 36.7394 -76.4108 31° Northeast 441 507 35,000  Level Washington Center
Wed 07:07:45 AM 36.8569 -76.3267 30° Northeast 441 507 35,000  Level Washington Center
Wed 07:08:46 AM 36.9636 -76.2494 30° Northeast 441 507 35,000  Level Washington Center
Wed 07:09:47 AM 37.0725 -76.1750 29° Northeast 441 507 35,000  Level Washington Center
Wed 07:10:45 AM 37.1731 -76.1106 27° Northeast 441 507 35,000  Level Washington Center
Wed 07:11:45 AM 37.2839 -76.0433 26° Northeast 441 507 35,000  Level Washington Center
Wed 07:12:47 AM 37.3900 -76.0622 352° North 392 451 35,000  Level Washington Center
Wed 07:13:47 AM 37.4964 -76.0814 352° North 376 433 35,000  Level Washington Center
Wed 07:14:45 AM 37.6053 -76.0058 29° Northeast 402 463 35,000  Level Washington Center
Wed 07:15:45 AM 37.7117 -75.9200 33° Northeast 415 478 35,000  Level Washington Center
Wed 07:16:46 AM 37.8225 -75.8258 34° Northeast 434 499 35,000  Level Washington Center
Wed 07:17:47 AM 37.9228 -75.7575 28° Northeast 443 510 35,000 -298 Level Washington Center
Wed 07:18:47 AM 38.0272 -75.6683 34° Northeast 453 521 34,400 -1,119 Descending Washington Center
Wed 07:19:45 AM 38.1397 -75.5733 34° Northeast 453 521 32,800 -1,613 Descending Washington Center
Wed 07:20:46 AM 38.2439 -75.4911 32° Northeast 448 516 31,200 -885 Descending Washington Center
Wed 07:21:47 AM 38.3522 -75.4089 31° Northeast 448 516 31,000 -99 Descending Washington Center
Wed 07:22:47 AM 38.4583 -75.3186 34° Northeast 448 516 31,000  Level Washington Center
Wed 07:23:44 AM 38.5686 -75.2358 30° Northeast 454 522 31,000  Level Washington Center
Wed 07:24:46 AM 38.6769 -75.1475 32° Northeast 454 522 31,000 -98 Level Washington Center
Wed 07:25:47 AM 38.7828 -75.0589 33° Northeast 449 517 30,800 -893 Descending Washington Center
Wed 07:26:47 AM 38.8886 -74.9703 33° Northeast 449 517 29,200 -1,627 Descending Washington Center
Wed 07:27:45 AM 38.9986 -74.8839 31° Northeast 454 522 27,600 -1,627 Descending Washington Center
Wed 07:28:45 AM 39.1064 -74.7919 33° Northeast 454 522 26,000 -1,618 Descending Washington Center
Wed 07:30:43 AM 39.2992 -74.5858 40° Northeast 451 519 22,800 -1,618 Descending New York Center
Wed 07:31:43 AM 39.3944 -74.4781 41° Northeast 446 513 21,200 -1,550 Descending New York Center
Wed 07:32:43 AM 39.4850 -74.3806 40° Northeast 436 502 19,700 -1,650 Descending New York Center
Wed 07:33:43 AM 39.5650 -74.2931 40° Northeast 425 489 17,900 -850 Descending New York Center
Wed 07:34:43 AM 39.6511 -74.2006 40° Northeast 407 468 18,000 -500 Climbing New York Center
Wed 07:35:43 AM 39.7417 -74.0969 41° Northeast 395 455 16,900 -1,450 Descending New York Center
Wed 07:36:43 AM 39.8231 -74.0117 39° Northeast 389 448 15,100 -1,750 Descending New York Center
Wed 07:37:43 AM 39.9064 -73.9397 34° Northeast 376 433 13,400 -1,800 Descending New York Center
Wed 07:38:43 AM 39.9892 -73.8867 26° Northeast 360 414 11,500 -1,200 Descending New York Center
Wed 07:39:43 AM 40.0825 -73.8203 29° Northeast 348 400 11,000 -550 Descending New York Center
Wed 07:40:32 AM 40.1333 -73.7667 39° Northeast 311 358 10,500 -991 Descending New York TRACON
Wed 07:41:32 AM 40.2167 -73.7167 25° Northeast 295 339 9,200 -1,526 Descending New York TRACON
Wed 07:42:26 AM 40.2833 -73.6667 30° Northeast 292 336 7,600 -1,765 Descending New York TRACON
Wed 07:43:14 AM 40.3333 -73.6333 27° Northeast 290 334 6,200 -1,833 Descending New York TRACON
Wed 07:44:14 AM 40.4000 -73.5833 30° Northeast 284 327 4,300 -1,905 Descending New York TRACON
Wed 07:45:20 AM 40.4667 -73.5333 30° Northeast 251 289 2,200 -1,150 Descending New York TRACON
Wed 07:46:14 AM 40.5333 -73.5000 21° North 254 292 2,000 -105 Descending New York TRACON
Wed 07:47:14 AM 40.6000 -73.4500 30° Northeast 248 285 2,000  Level New York TRACON
Wed 07:48:08 AM 40.6333 -73.4167 37° Northeast 180 207 2,000 -474 Level New York TRACON
Wed 07:49:08 AM 40.6667 -73.4167 360° North 151 174 1,100 -800 Descending New York TRACON
Wed 07:50:08 AM 40.7167 -73.4167 360° North 129 148 400 3,832 Descending New York TRACON
Wed 07:51:43 AM 40.7675 -73.4181 359° North 136 157 11,000 4,103 Climbing New York Center
Wed 07:52:43 AM 40.8050 -73.4194 358° North 136 157 11,000  Level New York Center

Login

Don't have an account? Register now (free) for customized features, flight alerts, and more!